createdAt,value
2022-12-25T00:01:40.108Z,99965.88
2022-12-25T00:04:06.614Z,99965.88
2022-12-25T00:06:33.116Z,99974.88
2022-12-25T00:08:59.398Z,99984.47
2022-12-25T00:11:26.967Z,99988.94
2022-12-25T00:13:53.300Z,99985.41
2022-12-25T00:16:20.595Z,99972.91
2022-12-25T00:18:47.389Z,99970.38
2022-12-25T00:21:14.144Z,99971.22
2022-12-25T00:23:42.644Z,99969.53
2022-12-25T00:26:09.946Z,99969.53
2022-12-25T00:28:37.962Z,99966.84
2022-12-25T00:31:04.984Z,99963.34
2022-12-25T00:33:31.406Z,99965.88
2022-12-25T00:35:58.156Z,99962.22
2022-12-25T00:38:24.481Z,99963.19
2022-12-25T00:40:50.838Z,99961.38
2022-12-25T00:43:17.171Z,99964.19
2022-12-25T00:45:44.832Z,99965.88
2022-12-25T00:48:11.186Z,99965.88
2022-12-25T00:50:37.853Z,99971.22
2022-12-25T00:53:04.783Z,99957.75
2022-12-25T00:55:31.226Z,99960.53
2022-12-25T00:57:58.671Z,99949.84
2022-12-25T01:00:25.017Z,99946.19
2022-12-25T01:02:52.670Z,99941.97
2022-12-25T01:05:19.030Z,99960.53
2022-12-25T01:07:45.341Z,99957.84
2022-12-25T01:10:11.784Z,99965.88
2022-12-25T01:12:39.171Z,99968.53
2022-12-25T01:15:06.636Z,99955.19
2022-12-25T01:17:32.957Z,99945.34
2022-12-25T01:20:00.553Z,99947.16
2022-12-25T01:22:27.008Z,99942.66
2022-12-25T01:24:53.374Z,99941.81
2022-12-25T01:27:19.668Z,99937.47
2022-12-25T01:29:46.403Z,99938.31
2022-12-25T01:32:12.851Z,99930.28
2022-12-25T01:34:39.260Z,99923.25
2022-12-25T01:37:06.870Z,99896.41
2022-12-25T01:39:33.610Z,99894.56
2022-12-25T01:42:00.061Z,99891.06
2022-12-25T01:44:36.238Z,99884.03
2022-12-25T01:47:02.944Z,99885.84
2022-12-25T01:49:29.423Z,99885.72
2022-12-25T01:51:57.103Z,99882.19
2022-12-25T01:54:27.190Z,99892.88
2022-12-25T01:56:55.601Z,99898.97
2022-12-25T01:59:23.459Z,99896.41
2022-12-25T02:01:49.884Z,99899.06
2022-12-25T02:04:19.799Z,99900.91
2022-12-25T02:06:46.957Z,99900.91
2022-12-25T02:09:13.794Z,99915.09
2022-12-25T02:11:41.451Z,99935.50
2022-12-25T02:14:07.881Z,99943.66
2022-12-25T02:16:57.782Z,99951.53
2022-12-25T02:19:28.141Z,99948.00
2022-12-25T02:22:01.112Z,99944.50
2022-12-25T02:24:36.834Z,99949.84
2022-12-25T02:27:07.749Z,99956.03
2022-12-25T02:29:41.620Z,99948.16
2022-12-25T02:32:12.282Z,99945.47
2022-12-25T02:34:43.107Z,99951.53
2022-12-25T02:37:12.721Z,99956.03
2022-12-25T02:39:43.427Z,99961.38
2022-12-25T02:42:13.296Z,99957.84
2022-12-25T02:44:43.181Z,99957.00
2022-12-25T02:47:10.646Z,99947.16
2022-12-25T02:49:37.815Z,99939.16
2022-12-25T02:52:07.016Z,99933.94
2022-12-25T02:54:36.485Z,99926.63
2022-12-25T02:57:05.584Z,99924.81
2022-12-25T02:59:33.076Z,99912.44
2022-12-25T03:02:01.877Z,99912.44
2022-12-25T03:04:29.627Z,99898.22
2022-12-25T03:06:59.595Z,99898.22
2022-12-25T03:09:27.887Z,99886.69
2022-12-25T03:11:56.968Z,99881.34
2022-12-25T03:14:23.314Z,99880.38
2022-12-25T03:16:52.006Z,99867.00
2022-12-25T03:19:20.370Z,99864.34
2022-12-25T03:21:46.714Z,99859.00
2022-12-25T03:24:13.013Z,99857.31
2022-12-25T03:26:39.360Z,99849.31
2022-12-25T03:29:05.784Z,99844.94
2022-12-25T03:31:39.095Z,99844.78
2022-12-25T03:34:11.404Z,99831.44
2022-12-25T03:36:46.183Z,99817.09
2022-12-25T03:39:18.076Z,99805.56
2022-12-25T03:41:47.134Z,99801.06
2022-12-25T03:44:19.916Z,99795.72
2022-12-25T03:46:47.673Z,99785.19
2022-12-25T03:49:17.744Z,99771.81
2022-12-25T03:51:47.553Z,99773.50
2022-12-25T03:54:15.585Z,99758.31
2022-12-25T03:56:42.444Z,99753.97
2022-12-25T03:59:08.873Z,99746.78
2022-12-25T04:01:35.296Z,99752.13
2022-12-25T04:04:01.740Z,99736.09
2022-12-25T04:06:28.167Z,99727.25
2022-12-25T04:08:55.812Z,99712.19
2022-12-25T04:11:22.089Z,99710.38
2022-12-25T04:13:48.400Z,99704.03
2022-12-25T04:16:14.842Z,99704.03
2022-12-25T04:18:41.236Z,99699.69
2022-12-25T04:21:07.551Z,99707.69
2022-12-25T04:23:33.893Z,99719.22
2022-12-25T04:26:01.537Z,99718.38
2022-12-25T04:28:27.824Z,99710.38
2022-12-25T04:30:54.226Z,99714.72
2022-12-25T04:33:20.528Z,99714.72
2022-12-25T04:35:47.232Z,99702.34
2022-12-25T04:38:13.752Z,99706.72
2022-12-25T04:40:40.084Z,99708.53
2022-12-25T04:43:07.709Z,99704.03
2022-12-25T04:45:34.039Z,99702.34
2022-12-25T04:48:00.385Z,99701.50
2022-12-25T04:50:26.741Z,99689.84
2022-12-25T04:52:53.045Z,99704.88
2022-12-25T04:55:19.385Z,99698.69
2022-12-25T04:57:45.678Z,99686.31
2022-12-25T05:00:13.649Z,99685.47
2022-12-25T05:02:40.306Z,99682.81
2022-12-25T05:05:06.949Z,99703.19
2022-12-25T05:07:33.424Z,99706.00
2022-12-25T05:09:59.793Z,99700.66
2022-12-25T05:12:26.094Z,99706.00
2022-12-25T05:14:52.426Z,99707.69
2022-12-25T05:17:20.159Z,99708.69
2022-12-25T05:19:46.443Z,99708.69
2022-12-25T05:22:12.741Z,99693.50
2022-12-25T05:24:39.069Z,99680.13
2022-12-25T05:27:05.374Z,99676.63
2022-12-25T05:29:31.693Z,99684.66
2022-12-25T05:31:58.001Z,99676.63
2022-12-25T05:34:25.746Z,99673.09
2022-12-25T05:36:52.023Z,99689.97
2022-12-25T05:39:18.361Z,99697.13
2022-12-25T05:41:44.746Z,99711.34
2022-12-25T05:44:11.141Z,99715.81
2022-12-25T05:46:37.530Z,99714.03
2022-12-25T05:49:03.838Z,99716.81
2022-12-25T05:51:31.698Z,99740.84
2022-12-25T05:53:58.122Z,99749.72
2022-12-25T05:56:24.490Z,99747.03
2022-12-25T05:58:50.774Z,99755.06
2022-12-25T06:01:18.772Z,99756.88
2022-12-25T06:03:45.281Z,99737.34
2022-12-25T06:06:12.143Z,99725.66
2022-12-25T06:08:39.784Z,99724.00
2022-12-25T06:11:06.857Z,99732.00
2022-12-25T06:13:33.756Z,99718.66
2022-12-25T06:16:00.126Z,99730.31
2022-12-25T06:18:26.483Z,99722.31
2022-12-25T06:20:52.751Z,99711.63
2022-12-25T06:23:19.193Z,99716.97
2022-12-25T06:25:46.829Z,99722.31
2022-12-25T06:28:13.152Z,99707.97
2022-12-25T06:30:39.453Z,99702.75
2022-12-25T06:33:05.775Z,99685.75
2022-12-25T06:35:32.078Z,99682.22
2022-12-25T06:37:58.588Z,99684.66
2022-12-25T06:40:24.904Z,99676.75
2022-12-25T06:42:52.704Z,99659.88
2022-12-25T06:45:19.150Z,99651.00
2022-12-25T06:47:45.470Z,99648.34
2022-12-25T06:50:11.815Z,99636.81
2022-12-25T06:52:38.107Z,99642.16
2022-12-25T06:55:04.647Z,99647.50
2022-12-25T06:57:30.993Z,99652.84
2022-12-25T06:59:58.660Z,99664.38
2022-12-25T07:02:25.121Z,99654.53
2022-12-25T07:04:52.276Z,99658.03
2022-12-25T07:07:18.621Z,99653.53
2022-12-25T07:09:45.065Z,99652.69
2022-12-25T07:12:14.926Z,99648.34
2022-12-25T07:14:41.567Z,99644.84
2022-12-25T07:17:09.234Z,99641.16
2022-12-25T07:19:41.052Z,99648.34
2022-12-25T07:22:10.852Z,99644.84
2022-12-25T07:24:37.171Z,99651.00
2022-12-25T07:27:03.513Z,99643.84
2022-12-25T07:29:29.822Z,99647.50
2022-12-25T07:31:56.227Z,99643.00
2022-12-25T07:34:23.918Z,99641.16
2022-12-25T07:36:50.247Z,99640.34
2022-12-25T07:39:16.591Z,99652.69
2022-12-25T07:41:43.127Z,99657.19
2022-12-25T07:44:09.563Z,99652.00
2022-12-25T07:46:35.895Z,99649.34
2022-12-25T07:49:02.320Z,99665.22
2022-12-25T07:51:29.941Z,99662.53
2022-12-25T07:53:56.301Z,99657.34
2022-12-25T07:56:22.600Z,99658.19
2022-12-25T07:58:49.059Z,99662.69
2022-12-25T08:01:16.455Z,99668.88
2022-12-25T08:03:43.051Z,99673.22
2022-12-25T08:06:10.074Z,99682.09
2022-12-25T08:08:38.529Z,99670.56
2022-12-25T08:11:06.556Z,99675.06
2022-12-25T08:13:33.744Z,99670.56
2022-12-25T08:16:00.913Z,99670.56
2022-12-25T08:18:30.225Z,99653.69
2022-12-25T08:20:57.214Z,99656.38
2022-12-25T08:23:23.543Z,99656.38
2022-12-25T08:25:51.198Z,99652.84
2022-12-25T08:28:17.535Z,99656.38
2022-12-25T08:30:43.900Z,99662.69
2022-12-25T08:33:10.239Z,99670.72
2022-12-25T08:35:36.572Z,99668.03
2022-12-25T08:38:02.933Z,99661.69
2022-12-25T08:40:29.213Z,99667.03
2022-12-25T08:42:56.920Z,99660.84
2022-12-25T08:45:23.695Z,99650.19
2022-12-25T08:47:53.595Z,99646.66
2022-12-25T08:50:19.924Z,99652.84
2022-12-25T08:52:46.306Z,99659.16
2022-12-25T08:55:12.604Z,99668.88
2022-12-25T08:57:38.957Z,99668.72
2022-12-25T09:00:07.254Z,99680.41
2022-12-25T09:02:33.768Z,99666.19
2022-12-25T09:05:00.208Z,99659.03
2022-12-25T09:07:26.574Z,99651.13
2022-12-25T09:09:52.866Z,99653.69
2022-12-25T09:12:19.220Z,99662.69
2022-12-25T09:14:45.531Z,99650.19
2022-12-25T09:17:13.244Z,99670.56
2022-12-25T09:19:39.551Z,99668.88
2022-12-25T09:22:05.892Z,99675.06
2022-12-25T09:24:32.285Z,99666.19
2022-12-25T09:26:58.648Z,99677.72
2022-12-25T09:29:24.956Z,99685.75
2022-12-25T09:31:51.257Z,99679.56
2022-12-25T09:34:19.263Z,99690.25
2022-12-25T09:36:45.730Z,99684.06
2022-12-25T09:39:12.064Z,99687.56
2022-12-25T09:41:42.604Z,99684.91
2022-12-25T09:44:10.243Z,99681.25
2022-12-25T09:46:39.376Z,99688.28
2022-12-25T09:49:07.582Z,99687.56
2022-12-25T09:51:37.580Z,99695.59
2022-12-25T09:54:06.970Z,99692.91
2022-12-25T09:56:33.346Z,99687.56
2022-12-25T09:58:59.656Z,99687.56
2022-12-25T10:01:31.744Z,99685.75
2022-12-25T10:04:08.086Z,99677.00
2022-12-25T10:06:40.329Z,99682.22
2022-12-25T10:09:12.494Z,99675.06
2022-12-25T10:11:51.135Z,99680.41
2022-12-25T10:14:22.361Z,99677.72
2022-12-25T10:16:53.420Z,99681.25
2022-12-25T10:19:26.843Z,99677.72
2022-12-25T10:21:56.851Z,99683.91
2022-12-25T10:24:28.233Z,99671.41
2022-12-25T10:26:55.452Z,99662.53
2022-12-25T10:29:21.807Z,99652.69
2022-12-25T10:31:49.421Z,99645.69
2022-12-25T10:34:16.130Z,99637.66
2022-12-25T10:36:43.809Z,99650.88
2022-12-25T10:39:15.528Z,99656.22
2022-12-25T10:41:54.622Z,99659.88
2022-12-25T10:44:22.011Z,99660.72
2022-12-25T10:46:48.954Z,99671.41
2022-12-25T10:49:16.418Z,99676.75
2022-12-25T10:51:43.054Z,99673.22
2022-12-25T10:54:19.408Z,99674.06
2022-12-25T10:56:52.096Z,99671.41
2022-12-25T10:59:18.499Z,99682.94
2022-12-25T11:01:44.938Z,99687.44
2022-12-25T11:04:17.995Z,99682.94
2022-12-25T11:06:44.327Z,99684.75
2022-12-25T11:09:15.213Z,99682.94
2022-12-25T11:11:42.964Z,99684.66
2022-12-25T11:14:15.347Z,99681.09
2022-12-25T11:16:41.791Z,99678.44
2022-12-25T11:19:23.167Z,99675.75
2022-12-25T11:21:50.965Z,99677.59
2022-12-25T11:24:18.596Z,99673.97
2022-12-25T11:26:48.520Z,99673.97
2022-12-25T11:29:21.494Z,99661.44
2022-12-25T11:31:49.153Z,99665.06
2022-12-25T11:34:20.947Z,99654.38
2022-12-25T11:36:48.014Z,99652.59
2022-12-25T11:39:19.129Z,99650.88
2022-12-25T11:41:48.045Z,99651.72
2022-12-25T11:44:25.113Z,99647.25
2022-12-25T11:46:51.996Z,99648.91
2022-12-25T11:49:19.836Z,99657.78
2022-12-25T11:51:47.477Z,99644.56
2022-12-25T11:54:17.359Z,99642.75
2022-12-25T11:56:43.751Z,99643.59
2022-12-25T11:59:18.349Z,99637.41
2022-12-25T12:01:47.990Z,99639.06
2022-12-25T12:04:17.998Z,99626.56
2022-12-25T12:06:47.687Z,99629.22
2022-12-25T12:09:22.574Z,99627.56
2022-12-25T12:11:53.399Z,99632.75
2022-12-25T12:14:38.002Z,99634.56
2022-12-25T12:17:04.437Z,99630.06
2022-12-25T12:19:31.278Z,99631.91
2022-12-25T12:22:00.097Z,99633.59
2022-12-25T12:24:29.381Z,99632.75
2022-12-25T12:27:00.764Z,99636.25
2022-12-25T12:29:29.833Z,99631.91
2022-12-25T12:31:58.876Z,99629.22
2022-12-25T12:34:27.126Z,99631.78
2022-12-25T12:36:56.173Z,99628.25
2022-12-25T12:39:25.050Z,99622.91
2022-12-25T12:41:51.401Z,99627.41
2022-12-25T12:44:18.048Z,99625.56
2022-12-25T12:46:54.693Z,99629.13
2022-12-25T12:49:22.246Z,99629.22
2022-12-25T12:51:49.337Z,99634.47
2022-12-25T12:54:17.088Z,99634.47
2022-12-25T12:56:54.566Z,99623.78
2022-12-25T12:59:21.001Z,99630.91
2022-12-25T13:01:50.493Z,99616.59
2022-12-25T13:04:26.353Z,99622.91
2022-12-25T13:06:55.845Z,99617.56
2022-12-25T13:09:29.168Z,99619.28
2022-12-25T13:11:55.568Z,99614.78
2022-12-25T13:14:22.888Z,99612.94
2022-12-25T13:16:51.537Z,99625.56
2022-12-25T13:19:19.114Z,99621.94
2022-12-25T13:21:53.167Z,99628.13
2022-12-25T13:24:20.381Z,99625.31
2022-12-25T13:26:46.795Z,99621.94
2022-12-25T13:29:21.818Z,99615.75
2022-12-25T13:31:48.340Z,99627.28
2022-12-25T13:34:21.161Z,99622.78
2022-12-25T13:36:48.160Z,99614.88
2022-12-25T13:39:17.474Z,99617.44
2022-12-25T13:41:45.898Z,99627.97
2022-12-25T13:44:16.239Z,99618.28
2022-12-25T13:46:42.526Z,99608.59
2022-12-25T13:49:13.757Z,99611.09
2022-12-25T13:51:40.153Z,99608.44
2022-12-25T13:54:07.050Z,99605.75
2022-12-25T13:56:35.019Z,99613.78
2022-12-25T13:59:01.342Z,99604.09
2022-12-25T14:01:28.451Z,99607.59
2022-12-25T14:03:55.036Z,99619.28
2022-12-25T14:06:24.676Z,99623.63
2022-12-25T14:08:52.091Z,99613.78
2022-12-25T14:11:19.621Z,99614.63
2022-12-25T14:13:48.347Z,99621.78
2022-12-25T14:16:16.165Z,99617.28
2022-12-25T14:18:49.645Z,99618.28
2022-12-25T14:21:21.915Z,99621.78
2022-12-25T14:23:49.900Z,99618.28
2022-12-25T14:26:16.332Z,99618.28
2022-12-25T14:28:46.583Z,99625.31
2022-12-25T14:31:14.443Z,99612.09
2022-12-25T14:33:41.711Z,99621.09
2022-12-25T14:36:10.838Z,99627.13
2022-12-25T14:38:37.383Z,99622.78
2022-12-25T14:41:04.721Z,99627.13
2022-12-25T14:43:31.608Z,99639.66
2022-12-25T14:45:59.324Z,99634.31
2022-12-25T14:48:28.581Z,99622.78
2022-12-25T14:50:57.906Z,99629.97
2022-12-25T14:53:27.782Z,99628.97
2022-12-25T14:55:54.931Z,99626.28
2022-12-25T14:58:22.602Z,99642.31
2022-12-25T15:00:54.175Z,99637.81
2022-12-25T15:03:23.018Z,99638.81
2022-12-25T15:05:58.710Z,99629.97
2022-12-25T15:08:25.122Z,99634.31
2022-12-25T15:11:01.686Z,99645.00
2022-12-25T15:13:29.346Z,99639.66
2022-12-25T15:15:57.794Z,99645.00
2022-12-25T15:18:26.021Z,99631.63
2022-12-25T15:20:52.586Z,99631.78
2022-12-25T15:23:20.796Z,99638.81
2022-12-25T15:25:47.309Z,99642.31
2022-12-25T15:28:13.771Z,99642.31
2022-12-25T15:30:40.334Z,99643.16
2022-12-25T15:33:06.928Z,99655.69
2022-12-25T15:35:33.543Z,99662.84
2022-12-25T15:37:59.994Z,99671.72
2022-12-25T15:40:27.601Z,99677.06
2022-12-25T15:42:56.300Z,99671.72
2022-12-25T15:45:24.286Z,99680.72
2022-12-25T15:47:50.611Z,99677.91
2022-12-25T15:50:17.623Z,99686.06
2022-12-25T15:52:44.205Z,99688.59
2022-12-25T15:55:11.159Z,99687.75
2022-12-25T15:57:40.462Z,99691.25
2022-12-25T16:00:07.642Z,99694.91
2022-12-25T16:02:34.150Z,99698.44
2022-12-25T16:05:04.138Z,99703.78
2022-12-25T16:07:33.338Z,99700.25
2022-12-25T16:09:59.782Z,99703.78
2022-12-25T16:12:26.260Z,99699.28
2022-12-25T16:14:53.991Z,99701.94
2022-12-25T16:17:20.282Z,99703.78
2022-12-25T16:19:46.624Z,99703.78
2022-12-25T16:22:13.328Z,99714.47
2022-12-25T16:24:39.663Z,99717.97
2022-12-25T16:27:05.982Z,99719.81
2022-12-25T16:29:32.301Z,99717.97
2022-12-25T16:31:59.940Z,99714.47
2022-12-25T16:34:26.354Z,99711.78
2022-12-25T16:36:52.660Z,99713.47
2022-12-25T16:39:19.020Z,99720.66
2022-12-25T16:41:45.487Z,99716.28
2022-12-25T16:44:11.786Z,99711.78
2022-12-25T16:46:39.510Z,99715.31
2022-12-25T16:49:07.215Z,99726.00
2022-12-25T16:51:33.538Z,99732.19
2022-12-25T16:54:00.051Z,99742.03
2022-12-25T16:56:26.406Z,99750.88
2022-12-25T16:58:52.735Z,99761.56
2022-12-25T17:01:20.177Z,99761.72
2022-12-25T17:03:46.945Z,99762.56
2022-12-25T17:06:15.207Z,99778.59
2022-12-25T17:08:41.726Z,99765.22
2022-12-25T17:11:08.106Z,99765.09
2022-12-25T17:13:34.790Z,99769.72
2022-12-25T17:16:01.206Z,99774.22
2022-12-25T17:18:27.638Z,99777.75
2022-12-25T17:20:53.969Z,99787.44
2022-12-25T17:23:21.606Z,99796.31
2022-12-25T17:25:47.972Z,99788.28
2022-12-25T17:28:14.298Z,99800.81
2022-12-25T17:30:40.613Z,99792.94
2022-12-25T17:33:06.919Z,99800.81
2022-12-25T17:35:34.659Z,99806.16
2022-12-25T17:38:00.979Z,99802.63
2022-12-25T17:40:28.638Z,99816.00
2022-12-25T17:42:54.943Z,99810.66
2022-12-25T17:45:21.375Z,99808.81
2022-12-25T17:47:47.686Z,99814.16
2022-12-25T17:50:14.135Z,99815.00
2022-12-25T17:52:41.360Z,99816.84
2022-12-25T17:55:08.013Z,99829.50
2022-12-25T17:57:35.668Z,99826.69
2022-12-25T18:00:02.001Z,99831.28
2022-12-25T18:02:28.628Z,99830.34
2022-12-25T18:04:55.099Z,99833.72
2022-12-25T18:07:21.425Z,99835.69
2022-12-25T18:09:47.768Z,99836.53
2022-12-25T18:12:14.066Z,99841.88
2022-12-25T18:14:41.711Z,99840.03
2022-12-25T18:17:08.166Z,99849.03
2022-12-25T18:19:34.492Z,99844.53
2022-12-25T18:22:00.909Z,99841.03
2022-12-25T18:24:27.180Z,99838.22
2022-12-25T18:26:53.472Z,99836.53
2022-12-25T18:29:19.808Z,99836.53
2022-12-25T18:31:47.550Z,99847.06
2022-12-25T18:34:13.903Z,99850.88
2022-12-25T18:36:40.239Z,99852.56
2022-12-25T18:39:06.589Z,99855.34
2022-12-25T18:41:32.893Z,99850.88
2022-12-25T18:43:59.523Z,99842.97
2022-12-25T18:46:26.960Z,99841.13
2022-12-25T18:48:55.833Z,99849.16
2022-12-25T18:51:22.204Z,99850.00
2022-12-25T18:53:48.630Z,99852.66
2022-12-25T18:56:15.931Z,99853.66
2022-12-25T18:58:42.963Z,99873.19
2022-12-25T19:01:09.929Z,99875.03
2022-12-25T19:03:36.344Z,99868.84
2022-12-25T19:06:03.971Z,99876.84
2022-12-25T19:08:30.331Z,99878.53
2022-12-25T19:10:56.623Z,99879.38
2022-12-25T19:13:23.574Z,99896.41
2022-12-25T19:15:49.913Z,99900.06
2022-12-25T19:18:16.279Z,99898.22
2022-12-25T19:20:42.724Z,99901.75
2022-12-25T19:23:10.331Z,99898.22
2022-12-25T19:25:38.813Z,99898.22
2022-12-25T19:28:05.129Z,99895.56
2022-12-25T19:30:31.451Z,99899.06
2022-12-25T19:32:57.806Z,99896.41
2022-12-25T19:35:24.139Z,99904.41
2022-12-25T19:37:50.456Z,99912.44
2022-12-25T19:40:18.284Z,99913.41
2022-12-25T19:42:44.594Z,99916.78
2022-12-25T19:45:11.089Z,99921.28
2022-12-25T19:47:37.398Z,99917.66
2022-12-25T19:50:03.973Z,99907.09
2022-12-25T19:52:30.501Z,99922.13
2022-12-25T19:54:56.863Z,99910.75
2022-12-25T19:57:24.575Z,99931.03
2022-12-25T19:59:50.962Z,99921.19
2022-12-25T20:02:17.369Z,99923.13
2022-12-25T20:04:43.844Z,99921.44
2022-12-25T20:07:10.259Z,99914.41
2022-12-25T20:09:36.573Z,99920.44
2022-12-25T20:12:02.975Z,99934.78
2022-12-25T20:14:30.626Z,99941.13
2022-12-25T20:16:56.988Z,99931.28
2022-12-25T20:19:23.323Z,99932.13
2022-12-25T20:21:49.643Z,99930.44
2022-12-25T20:24:16.061Z,99941.13
2022-12-25T20:26:44.356Z,99922.41
2022-12-25T20:29:12.900Z,99921.44
2022-12-25T20:31:40.536Z,99925.09
2022-12-25T20:34:07.609Z,99931.28
2022-12-25T20:36:37.183Z,99932.13
2022-12-25T20:39:04.657Z,99933.94
2022-12-25T20:41:30.944Z,99933.94
2022-12-25T20:43:57.727Z,99958.84
2022-12-25T20:46:24.245Z,99958.00
2022-12-25T20:48:52.020Z,99947.31
2022-12-25T20:51:19.234Z,99938.31
2022-12-25T20:53:45.826Z,99948.16
2022-12-25T20:56:13.560Z,99949.97
2022-12-25T20:58:39.850Z,99955.31
2022-12-25T21:01:07.303Z,99958.00
2022-12-25T21:03:33.821Z,99964.19
2022-12-25T21:06:01.924Z,99964.28
2022-12-25T21:08:28.682Z,99965.16
2022-12-25T21:10:56.279Z,99966.97
2022-12-25T21:13:24.371Z,99973.19
2022-12-25T21:15:51.831Z,99967.84
2022-12-25T21:18:19.738Z,99964.28
2022-12-25T21:20:46.808Z,99966.97
2022-12-25T21:23:14.489Z,99982.88
2022-12-25T21:25:41.069Z,99977.66
2022-12-25T21:28:07.609Z,99984.72
2022-12-25T21:30:34.150Z,99983.88
2022-12-25T21:33:00.699Z,99981.19
2022-12-25T21:35:27.043Z,99983.88
2022-12-25T21:37:53.395Z,99978.53
2022-12-25T21:40:21.040Z,99984.81
2022-12-25T21:42:47.367Z,99991.00
2022-12-25T21:45:13.789Z,99988.34
2022-12-25T21:48:01.451Z,99992.84
2022-12-25T21:50:26.389Z,99984.81
2022-12-25T21:52:52.724Z,99989.22
2022-12-25T21:55:19.109Z,99992.84
2022-12-25T21:57:46.720Z,99999.91
2022-12-25T22:00:13.382Z,100013.25
2022-12-25T22:02:39.958Z,100009.72
2022-12-25T22:05:06.904Z,100010.59
2022-12-25T22:07:33.227Z,100003.53
2022-12-25T22:09:59.536Z,100008.88
2022-12-25T22:12:31.929Z,100009.72
2022-12-25T22:15:00.012Z,100018.72
2022-12-25T22:17:27.442Z,100021.38
2022-12-25T22:19:53.784Z,100017.72
2022-12-25T22:22:21.425Z,100015.19
2022-12-25T22:24:47.740Z,100011.69
2022-12-25T22:27:14.139Z,100036.44
2022-12-25T22:29:40.426Z,100047.25
2022-12-25T22:32:08.554Z,100041.91
2022-12-25T22:34:35.153Z,100050.78
2022-12-25T22:37:02.289Z,100062.31
2022-12-25T22:39:28.813Z,100064.28
2022-12-25T22:41:55.636Z,100072.28
2022-12-25T22:44:22.067Z,100068.63
2022-12-25T22:46:48.441Z,100053.59
2022-12-25T22:49:16.099Z,100064.28
2022-12-25T22:51:42.824Z,100086.50
2022-12-25T22:54:09.170Z,100079.44
2022-12-25T22:56:35.466Z,100077.63
2022-12-25T22:59:01.757Z,100081.25
2022-12-25T23:01:28.151Z,100089.25
2022-12-25T23:03:54.969Z,100086.59
2022-12-25T23:06:22.627Z,100080.41
2022-12-25T23:08:49.157Z,100083.06
2022-12-25T23:11:15.519Z,100096.44
2022-12-25T23:13:41.868Z,100097.41
2022-12-25T23:16:12.458Z,100105.44
2022-12-25T23:18:38.839Z,100110.78
2022-12-25T23:21:05.165Z,100107.13
2022-12-25T23:23:32.793Z,100111.63
2022-12-25T23:25:59.467Z,100112.59
2022-12-25T23:28:25.784Z,100109.78
2022-12-25T23:30:52.128Z,100116.13
2022-12-25T23:33:18.455Z,100106.28
2022-12-25T23:35:44.881Z,100104.59
2022-12-25T23:38:11.177Z,100092.22
2022-12-25T23:40:38.887Z,100086.88
2022-12-25T23:43:05.203Z,100100.22
2022-12-25T23:45:31.493Z,100105.56
2022-12-25T23:47:58.024Z,100105.56
2022-12-25T23:50:24.389Z,100104.69
2022-12-25T23:52:50.691Z,100097.56
2022-12-25T23:55:17.121Z,100119.78
2022-12-25T23:57:44.773Z,100121.59
